NCAR-RAP Real-Time Weather Data

Output produced by METARs form (14 October 2019  23:16 UTC)
found at http://weather.rap.ucar.edu/surface/
 
KSAN 142251Z 28010KT 10SM FEW018 22/12 A2992 RMK AO2 SLP131 T02220122
KSAN 142151Z 29008KT 10SM FEW018 FEW035 22/11 A2992 RMK AO2 SLP130 T02220111
KSAN 142051Z 28009KT 10SM FEW035 23/11 A2992 RMK AO2 SLP130 T02330111 58018
KSAN 141951Z 25010G17KT 10SM FEW035 22/11 A2994 RMK AO2 SLP139 T02170106
KSAN 141851Z 22005KT 9SM FEW035 21/11 A2996 RMK AO2 SLP146 T02110106
KSAN 141751Z 20007KT 10SM SCT035 21/11 A2997 RMK AO2 SLP148 T02060106 10206 20178 51007
KSAN 141651Z VRB04KT 10SM BKN035 20/11 A2997 RMK AO2 SLP148 T02000106
KSAN 141551Z VRB05KT 10SM BKN035 BKN200 19/11 A2996 RMK AO2 SLP146 T01940111
KSAN 141451Z VRB03KT 10SM BKN037 19/10 A2995 RMK AO2 SLP142 T01890100 51014
KSAN 141351Z 00000KT 10SM BKN037 19/11 A2994 RMK AO2 SLP138 T01890106
KSAN 141251Z 00000KT 10SM BKN036 18/12 A2993 RMK AO2 SLP135 T01780117
KSAN 141151Z 33003KT 10SM BKN035 18/12 A2991 RMK AO2 SLP128 T01780117 10194 20178 55001
KSAN 141051Z 21003KT 10SM BKN036 19/12 A2991 RMK AO2 SLP127 T01890117
KSAN 140951Z 25003KT 10SM BKN034 19/12 A2991 RMK AO2 SLP128 T01890122
KSAN 140851Z 24003KT 10SM BKN034 19/12 A2991 RMK AO2 SLP129 T01890122 55001
KSAN 140751Z 24004KT 10SM BKN034 19/13 A2991 RMK AO2 SLP128 T01890128 402390161
KSAN 140651Z 22005KT 10SM BKN033 19/13 A2991 RMK AO2 SLP129 T01940128
KSAN 140618Z VRB03KT 10SM BKN030 19/13 A2991 RMK AO2 T01940133
KSAN 140551Z 22004KT 10SM BKN029 19/13 A2992 RMK AO2 SLP130 T01940133 10211 20194 52008
KSAN 140451Z 26005KT 10SM BKN026 19/14 A2991 RMK AO2 SLP127 T01940139
KSAN 140351Z 23003KT 10SM BKN025 19/14 A2990 RMK AO2 SLP124 T01940139
KSAN 140251Z 27006KT 10SM BKN023 19/14 A2989 RMK AO2 SLP121 T01940139 53010
KSAN 140151Z 27009KT 10SM BKN022 19/14 A2988 RMK AO2 SLP118 T01940139
KSAN 140059Z 27007KT 10SM BKN023 20/14 A2987 RMK AO2 T02000139
KSAN 140051Z 27006KT 10SM SCT023 20/14 A2987 RMK AO2 SLP113 SCT V BKN T02000139
KSAN 132351Z 26007KT 10SM SCT023 21/13 A2986 RMK AO2 SLP111 T02110133 10239 20206 58001
KSAN 132334Z 27008KT 240V300 10SM SCT023 21/13 A2986 RMK AO2 T02060133
KSAN 132251Z 27010G15KT 8SM BKN023 22/14 A2986 RMK AO2 SLP113 T02220139
KSAN 132201Z 30008KT 10SM BKN023 22/14 A2986 RMK AO2 T02220139
KSAN 132151Z 27010KT 10SM SCT022 22/14 A2986 RMK AO2 SLP112 SCT V BKN T02220139
KSAN 132133Z 29007KT 10SM SCT022 22/14 A2986 RMK AO2 T02220144
KSAN 132051Z 26008KT 8SM BKN023 23/14 A2987 RMK AO2 SLP113 T02280144 58014
KSAN 131951Z 26009G16KT 230V300 10SM BKN024 22/14 A2988 RMK AO2 SLP118 T02220144
KSAN 131851Z 25006KT 10SM BKN024 23/14 A2989 RMK AO2 SLP122 T02280144
KSAN 131751Z 22006KT 9SM BKN021 21/14 A2991 RMK AO2 SLP127 T02110144 10217 20183 51008
KSAN 131651Z VRB05KT 10SM BKN019 20/15 A2990 RMK AO2 SLP126 T02000150
KSAN 131551Z 15006KT 10SM BKN017 20/16 A2990 RMK AO2 SLP123 T02000156
KSAN 131451Z 00000KT 10SM BKN017 19/16 A2988 RMK AO2 SLP119 T01890161 53009
KSAN 131351Z 02003KT 10SM BKN017 18/16 A2986 RMK AO2 SLP112 T01830161
KSAN 131251Z 08004KT 10SM BKN016 18/17 A2985 RMK AO2 SLP109 T01830167
KSAN 131227Z 00000KT 10SM OVC015 19/17 A2985 RMK AO2 T01890167
KSAN 131151Z 00000KT 10SM OVC012 18/17 A2986 RMK AO2 SLP110 T01830167 10183 20161 55002
KSAN 131128Z 00000KT 10SM OVC010 18/17 A2985 RMK AO2 T01830167
KSAN 131051Z 28004KT 10SM OVC008 18/17 A2985 RMK AO2 SLP107 T01830167
KSAN 130951Z 00000KT 10SM OVC009 18/17 A2986 RMK AO2 SLP111 T01780167
KSAN 130851Z 00000KT 9SM BKN009 17/16 A2986 RMK AO2 SLP112 T01720161 56003
KSAN 130838Z 00000KT 9SM BKN009 17/16 A2987 RMK AO2 T01670161
KSAN 130751Z 00000KT 10SM FEW008 17/16 A2986 RMK AO2 SLP112 T01720161 402500122
KSAN 130651Z 00000KT 9SM SCT008 17/16 A2987 RMK AO2 SLP113 T01720156
KSAN 130612Z 00000KT 9SM SCT009 18/16 A2987 RMK AO2 T01780161
KSAN 130551Z 00000KT 9SM FEW010 18/17 A2987 RMK AO2 SLP115 T01780167 10233 20178 53002
KSAN 130451Z 31003KT 10SM FEW010 18/17 A2987 RMK AO2 SLP113 T01830172
KSAN 130351Z 30003KT 10SM FEW010 19/17 A2986 RMK AO2 SLP112 T01890167
KSAN 130251Z 30003KT 10SM FEW010 19/17 A2986 RMK AO2 SLP112 T01890172 53003
KSAN 130151Z 29005KT 10SM FEW010 20/17 A2985 RMK AO2 SLP109 T02000172
KSAN 130051Z 31004KT 10SM CLR 21/17 A2985 RMK AO2 SLP108 T02110167
KSAN 122351Z 27005KT 10SM FEW010 FEW025 23/15 A2986 RMK AO2 SLP110 T02330150 10250 20222 58002